Cornide de Saavedra — EDSV — position and weather

sailwx.info

Track history (hours):
 
Tides and Currents Weather Stations Pressure Air Temp Water Temp Dewpoint Dewpoint Depression Visibility Wind Speed Wind Dir Waves Ship Positions

Oceanographic research ship Cornide de Saavedra (Spain)

Detailed information on ship capabilities available from University of Delaware's Ocean Information Center.

Last reported at 2013-Aug-22 03:06 UTC. Time now 2017-Oct-17 15:07 UTC.
Position N 42°14' W 008°44'.
Warning: this ship's position is years out of date!

Length 67 m; draft 5 m.

Type: Dredging. MMSI: 224765000.

Date/timePositionNaut miles runAvg speedWind from/ knotsBaromVisibWave heightAir tempDewpointWater temp
2013-Aug-22 03:06N 42°14' W 008°44'0 0.0
2013-Aug-22 01:28N 42°14' W 008°44'0 0.0
2013-Aug-21 21:33N 42°14' W 008°44'0 0.0
2013-Aug-21 20:32N 42°14' W 008°44'0 0.0
2013-Aug-21 19:32N 42°14' W 008°44'0 0.0
2013-Aug-21 18:31N 42°14' W 008°44'0 0.0
2013-Aug-21 17:33N 42°14' W 008°44'0 0.0
2013-Aug-21 16:29N 42°14' W 008°44'0 0.0
2013-Aug-21 14:33N 42°14' W 008°44'0 0.0
2013-Aug-21 04:28N 42°14' W 008°44'0 0.0
2013-Aug-20 02:19N 42°14' W 008°44'0 0.0
2013-Aug-20 01:33N 42°14' W 008°44'0 0.0
2013-Aug-20 00:33N 42°14' W 008°44'0 0.0
2013-Aug-19 22:29N 42°14' W 008°44'0 0.0
2013-Aug-18 06:05N 42°14' W 008°44'0 0.0
2013-Aug-18 00:05N 42°14' W 008°44'0 0.0
2013-Aug-16 08:31N 42°14' W 008°44'11 2.2
2013-Aug-16 03:31N 42°09' W 008°57'86 7.1
2013-Aug-15 15:23N 40°45' W 009°23'84 7.5
2013-Aug-15 04:14N 39°23' W 009°46'21 7.3
2013-Aug-15 01:20N 39°01' W 009°49'8 7.3
2013-Aug-15 00:12N 38°53' W 009°50'5 7.1
2013-Aug-14 23:33N 38°49' W 009°50'7 7.0
2013-Aug-14 22:31N 38°41' W 009°50'7 7.0
2013-Aug-14 21:33N 38°35' W 009°48'7 6.8
2013-Aug-14 20:33N 38°28' W 009°46'7 6.9
2013-Aug-14 19:33N 38°21' W 009°44'7 7.0
2013-Aug-14 18:33N 38°15' W 009°42'8 7.5
2013-Aug-14 17:33N 38°07' W 009°39'7 7.2
2013-Aug-14 16:33N 38°00' W 009°37'7 7.2
2013-Aug-14 15:32N 37°53' W 009°35'7 7.3
2013-Aug-14 14:33N 37°46' W 009°33'7 7.2
2013-Aug-14 13:33N 37°39' W 009°31'7 7.2
2013-Aug-14 12:31N 37°32' W 009°29'7 7.3
2013-Aug-14 11:33N 37°25' W 009°27'7 7.3
2013-Aug-14 10:34N 37°18' W 009°25'7 7.3
2013-Aug-14 09:33N 37°11' W 009°23'8 7.4
2013-Aug-14 08:32N 37°03' W 009°21'7 7.2
2013-Aug-14 07:33N 36°57' W 009°19'7 7.0
2013-Aug-14 06:32N 36°51' W 009°14'8 7.5
2013-Aug-14 05:26N 36°45' W 009°07'7 7.9
2013-Aug-14 04:33N 36°43' W 008°58'8 8.0
2013-Aug-14 03:33N 36°43' W 008°48'8 8.4
2013-Aug-14 02:33N 36°42' W 008°38'8 8.4
2013-Aug-14 01:33N 36°42' W 008°27'8 8.2
2013-Aug-14 00:33N 36°41' W 008°17'8 8.4
2013-Aug-13 23:33N 36°40' W 008°07'8 8.0
2013-Aug-13 22:33N 36°40' W 007°57'8 7.9
2013-Aug-13 21:33N 36°39' W 007°47'8 8.0
2013-Aug-13 20:33N 36°38' W 007°37'8 8.2
2013-Aug-13 19:33N 36°38' W 007°27'8 7.5
2013-Aug-13 18:33N 36°37' W 007°18'7 7.2
2013-Aug-13 17:33N 36°37' W 007°09'8 7.9
2013-Aug-13 16:33N 36°36' W 006°59'8 7.9
2013-Aug-13 15:33N 36°35' W 006°49'26 3.2
2013-Aug-13 07:33N 36°32' W 006°17'2 1.8
2013-Aug-13 06:27N 36°34' W 006°19'3 2.8
2013-Aug-13 05:32N 36°35' W 006°21'0 0.0
2013-Aug-13 04:33N 36°35' W 006°21'0 0.0
2013-Aug-13 03:09N 36°35' W 006°21'0 0.0
2013-Aug-13 02:30N 36°35' W 006°21'0 0.0
2013-Aug-13 01:16N 36°35' W 006°21'0 0.0
2013-Aug-13 00:18N 36°35' W 006°21'0 0.0
2013-Aug-12 23:33N 36°35' W 006°21'0 0.0
2013-Aug-12 20:07N 36°35' W 006°21'0 0.0
2013-Aug-12 19:30N 36°35' W 006°21'33 4.0
2013-Aug-12 11:10N 36°37' W 007°03'6 9.3
2013-Aug-12 10:33N 36°37' W 007°10'11 9.1
2013-Aug-12 09:22N 36°38' W 007°23'7 8.8
2013-Aug-12 08:33N 36°39' W 007°32'9 8.5
2013-Aug-12 07:33N 36°40' W 007°43'8 8.2
2013-Aug-12 06:33N 36°40' W 007°53'8 8.3
2013-Aug-12 05:33N 36°41' W 008°03'9 8.7
2013-Aug-12 04:33N 36°42' W 008°14'9 8.8
2013-Aug-12 03:33N 36°42' W 008°25'  
Track history (hours):
 
Tides and Currents Weather Stations Pressure Air Temp Water Temp Dewpoint Dewpoint Depression Visibility Wind Speed Wind Dir Waves Ship Positions

Oceanographic research ship Cornide de Saavedra (Spain)

Detailed information on ship capabilities available from University of Delaware's Ocean Information Center.

Last reported at 2013-Aug-22 03:06 UTC. Time now 2017-Oct-17 15:07 UTC.
Position N 42°14' W 008°44'.
Warning: this ship's position is years out of date!

Length 67 m; draft 5 m.

Type: Dredging. MMSI: 224765000.

Date/timePositionNaut miles runAvg speedWind from/ knotsBaromVisibWave heightAir tempDewpointWater temp
2013-Aug-22 03:06N 42°14' W 008°44'0 0.0
2013-Aug-22 01:28N 42°14' W 008°44'0 0.0
2013-Aug-21 21:33N 42°14' W 008°44'0 0.0
2013-Aug-21 20:32N 42°14' W 008°44'0 0.0
2013-Aug-21 19:32N 42°14' W 008°44'0 0.0
2013-Aug-21 18:31N 42°14' W 008°44'0 0.0
2013-Aug-21 17:33N 42°14' W 008°44'0 0.0
2013-Aug-21 16:29N 42°14' W 008°44'0 0.0
2013-Aug-21 14:33N 42°14' W 008°44'0 0.0
2013-Aug-21 04:28N 42°14' W 008°44'0 0.0
2013-Aug-20 02:19N 42°14' W 008°44'0 0.0
2013-Aug-20 01:33N 42°14' W 008°44'0 0.0
2013-Aug-20 00:33N 42°14' W 008°44'0 0.0
2013-Aug-19 22:29N 42°14' W 008°44'0 0.0
2013-Aug-18 06:05N 42°14' W 008°44'0 0.0
2013-Aug-18 00:05N 42°14' W 008°44'0 0.0
2013-Aug-16 08:31N 42°14' W 008°44'11 2.2
2013-Aug-16 03:31N 42°09' W 008°57'86 7.1
2013-Aug-15 15:23N 40°45' W 009°23'84 7.5
2013-Aug-15 04:14N 39°23' W 009°46'21 7.3
2013-Aug-15 01:20N 39°01' W 009°49'8 7.3
2013-Aug-15 00:12N 38°53' W 009°50'5 7.1
2013-Aug-14 23:33N 38°49' W 009°50'7 7.0
2013-Aug-14 22:31N 38°41' W 009°50'7 7.0
2013-Aug-14 21:33N 38°35' W 009°48'7 6.8
2013-Aug-14 20:33N 38°28' W 009°46'7 6.9
2013-Aug-14 19:33N 38°21' W 009°44'7 7.0
2013-Aug-14 18:33N 38°15' W 009°42'8 7.5
2013-Aug-14 17:33N 38°07' W 009°39'7 7.2
2013-Aug-14 16:33N 38°00' W 009°37'7 7.2
2013-Aug-14 15:32N 37°53' W 009°35'7 7.3
2013-Aug-14 14:33N 37°46' W 009°33'7 7.2
2013-Aug-14 13:33N 37°39' W 009°31'7 7.2
2013-Aug-14 12:31N 37°32' W 009°29'7 7.3
2013-Aug-14 11:33N 37°25' W 009°27'7 7.3
2013-Aug-14 10:34N 37°18' W 009°25'7 7.3
2013-Aug-14 09:33N 37°11' W 009°23'8 7.4
2013-Aug-14 08:32N 37°03' W 009°21'7 7.2
2013-Aug-14 07:33N 36°57' W 009°19'7 7.0
2013-Aug-14 06:32N 36°51' W 009°14'8 7.5
2013-Aug-14 05:26N 36°45' W 009°07'7 7.9
2013-Aug-14 04:33N 36°43' W 008°58'8 8.0
2013-Aug-14 03:33N 36°43' W 008°48'8 8.4
2013-Aug-14 02:33N 36°42' W 008°38'8 8.4
2013-Aug-14 01:33N 36°42' W 008°27'8 8.2
2013-Aug-14 00:33N 36°41' W 008°17'8 8.4
2013-Aug-13 23:33N 36°40' W 008°07'8 8.0
2013-Aug-13 22:33N 36°40' W 007°57'8 7.9
2013-Aug-13 21:33N 36°39' W 007°47'8 8.0
2013-Aug-13 20:33N 36°38' W 007°37'8 8.2
2013-Aug-13 19:33N 36°38' W 007°27'8 7.5
2013-Aug-13 18:33N 36°37' W 007°18'7 7.2
2013-Aug-13 17:33N 36°37' W 007°09'8 7.9
2013-Aug-13 16:33N 36°36' W 006°59'8 7.9
2013-Aug-13 15:33N 36°35' W 006°49'26 3.2
2013-Aug-13 07:33N 36°32' W 006°17'2 1.8
2013-Aug-13 06:27N 36°34' W 006°19'3 2.8
2013-Aug-13 05:32N 36°35' W 006°21'0 0.0
2013-Aug-13 04:33N 36°35' W 006°21'0 0.0
2013-Aug-13 03:09N 36°35' W 006°21'0 0.0
2013-Aug-13 02:30N 36°35' W 006°21'0 0.0
2013-Aug-13 01:16N 36°35' W 006°21'0 0.0
2013-Aug-13 00:18N 36°35' W 006°21'0 0.0
2013-Aug-12 23:33N 36°35' W 006°21'0 0.0
2013-Aug-12 20:07N 36°35' W 006°21'0 0.0
2013-Aug-12 19:30N 36°35' W 006°21'33 4.0
2013-Aug-12 11:10N 36°37' W 007°03'6 9.3
2013-Aug-12 10:33N 36°37' W 007°10'11 9.1
2013-Aug-12 09:22N 36°38' W 007°23'7 8.8
2013-Aug-12 08:33N 36°39' W 007°32'9 8.5
2013-Aug-12 07:33N 36°40' W 007°43'8 8.2
2013-Aug-12 06:33N 36°40' W 007°53'8 8.3
2013-Aug-12 05:33N 36°41' W 008°03'9 8.7
2013-Aug-12 04:33N 36°42' W 008°14'9 8.8
2013-Aug-12 03:33N 36°42' W 008°25'  

Dump ship's entire track history